Skip to main content.
Station Historical Data
 
Daily Summary for July 20, 2018 Units:  Both    English   Metric
Next Day »
Daily Weekly Monthly Yearly Custom
  Current: High: Low: Average:
Temperature: 75.9 °F /  24.4 °C 75.9 °F /  24.4 °C 64.8 °F /  18.2 °C 69.3 °F /  20.7 °C
Dew Point: 64.9 °F /  18.3 °C 70.2 °F /  21.2 °C 61.7 °F /  16.5 °C 64.9 °F /  18.3 °C
Humidity: 69% 92% 67% 87%
Wind Speed: 6.4mph /  10.3km/h 8mph /  12.9km/h - 3.2mph /  5.1km/h
Wind Gust: 9.2mph /  14.8km/h 11mph /  17.7km/h - -
WindNorth - - SW
Pressure: 29.8 in /  1010.5 hPa 29.8 in /  1010.7 hPa 29.8 in /  1008.4 hPa -
Precipitation: 0 in /  0.0 mm      
Historical Graphs
 
 
Tabular Data for July 20, 2018
Time Temperature Dew Point Pressure Wind Wind Speed Wind Gust Humidity Rainfall Rate (Hourly) solar Conditions
00:04 74.1 °F /  23.4 °C 70 °F /  21.1 °C 29.8in /  1008.4hPa WNW 3.6mph /  5.8km/h 4.6mph /  7.4km/h 87% 0in /  0.0mm 0.00 W/m2 RA
00:09 74.3 °F /  23.5 °C 70.2 °F /  21.2 °C 29.8in /  1008.4hPa NW 3mph /  4.8km/h 3.5mph /  5.6km/h 87% 0in /  0.0mm 0.00 W/m2 RA
00:14 74.1 °F /  23.4 °C 69.6 °F /  20.9 °C 29.8in /  1008.6hPa WNW 2.3mph /  3.7km/h 3.5mph /  5.6km/h 86% 0in /  0.0mm 0.00 W/m2 RA
00:19 74.1 °F /  23.4 °C 69.6 °F /  20.9 °C 29.8in /  1008.6hPa WNW 2.3mph /  3.7km/h 3.5mph /  5.6km/h 86% 0in /  0.0mm 0.00 W/m2 FEW
00:24 74.1 °F /  23.4 °C 69.6 °F /  20.9 °C 29.8in /  1008.6hPa WNW 3mph /  4.8km/h 4mph /  6.4km/h 86% 0in /  0.0mm 0.00 W/m2 FEW
00:29 74.1 °F /  23.4 °C 69.3 °F /  20.7 °C 29.8in /  1008.6hPa NW 3mph /  4.8km/h 3.5mph /  5.6km/h 85% 0in /  0.0mm 0.00 W/m2 FEW
00:34 73.9 °F /  23.3 °C 69.4 °F /  20.8 °C 29.8in /  1008.7hPa NW 4mph /  6.4km/h 4.6mph /  7.4km/h 86% 0in /  0.0mm 0.00 W/m2 FEW
00:39 73.9 °F /  23.3 °C 69.4 °F /  20.8 °C 29.8in /  1008.7hPa NW 3.5mph /  5.6km/h 4mph /  6.4km/h 86% 0in /  0.0mm 0.00 W/m2 FEW
00:44 73.6 °F /  23.1 °C 68.7 °F /  20.4 °C 29.8in /  1008.7hPa NNW 4.2mph /  6.8km/h 4.6mph /  7.4km/h 85% 0in /  0.0mm 0.00 W/m2 FEW
00:49 73.2 °F /  22.9 °C 68.9 °F /  20.5 °C 29.8in /  1008.7hPa NW 2.9mph /  4.7km/h 3.5mph /  5.6km/h 86% 0in /  0.0mm 0.00 W/m2 FEW
00:54 73 °F /  22.8 °C 68.9 °F /  20.5 °C 29.8in /  1008.7hPa WNW 2.4mph /  3.9km/h 3.5mph /  5.6km/h 87% 0in /  0.0mm 0.00 W/m2 FEW
00:59 72.9 °F /  22.7 °C 68.7 °F /  20.4 °C 29.8in /  1008.7hPa NW 1.7mph /  2.7km/h 2.3mph /  3.7km/h 87% 0in /  0.0mm 0.00 W/m2 FEW
01:04 72.7 °F /  22.6 °C 68.5 °F /  20.3 °C 29.8in /  1008.8hPa NW 1.9mph /  3.1km/h 3.5mph /  5.6km/h 87% 0in /  0.0mm 0.00 W/m2 FEW
01:09 72.5 °F /  22.5 °C 68.7 °F /  20.4 °C 29.8in /  1008.8hPa NNW 2.4mph /  3.9km/h 3.5mph /  5.6km/h 88% 0in /  0.0mm 0.00 W/m2 FEW
01:14 72.1 °F /  22.3 °C 68.2 °F /  20.1 °C 29.8in /  1008.8hPa NNW 2mph /  3.2km/h 2.3mph /  3.7km/h 87% 0in /  0.0mm 0.00 W/m2 FEW
01:19 72 °F /  22.2 °C 68.2 °F /  20.1 °C 29.8in /  1008.7hPa North 3.9mph /  6.3km/h 4mph /  6.4km/h 88% 0in /  0.0mm 0.00 W/m2 FEW
01:24 71.4 °F /  21.9 °C 67.8 °F /  19.9 °C 29.8in /  1008.8hPa North 4.3mph /  6.9km/h 5mph /  8.0km/h 88% 0in /  0.0mm 0.00 W/m2 FEW
01:29 71.2 °F /  21.8 °C 67.5 °F /  19.7 °C 29.8in /  1008.7hPa North 4mph /  6.4km/h 6mph /  9.7km/h 88% 0in /  0.0mm 0.00 W/m2 FEW
01:34 70.9 °F /  21.6 °C 67.5 °F /  19.7 °C 29.8in /  1008.8hPa North 4.2mph /  6.8km/h 5mph /  8.0km/h 89% 0in /  0.0mm 0.00 W/m2 FEW
01:39 70.5 °F /  21.4 °C 67.1 °F /  19.5 °C 29.8in /  1008.8hPa NNW 4.6mph /  7.4km/h 5mph /  8.0km/h 89% 0in /  0.0mm 0.00 W/m2 FEW
01:44 70.3 °F /  21.3 °C 67.3 °F /  19.6 °C 29.8in /  1008.9hPa NNW 5mph /  8.0km/h 5.8mph /  9.3km/h 90% 0in /  0.0mm 0.00 W/m2 FEW
01:49 70.2 °F /  21.2 °C 67.1 °F /  19.5 °C 29.8in /  1008.9hPa NE 4.5mph /  7.2km/h 6.9mph /  11.1km/h 90% 0in /  0.0mm 0.00 W/m2 FEW
01:54 70.2 °F /  21.2 °C 66.9 °F /  19.4 °C 29.8in /  1008.8hPa North 4.1mph /  6.6km/h 5.8mph /  9.3km/h 90% 0in /  0.0mm 0.00 W/m2 FEW
01:59 70.2 °F /  21.2 °C 67.3 °F /  19.6 °C 29.8in /  1008.7hPa North 4.9mph /  7.9km/h 4.6mph /  7.4km/h 91% 0in /  0.0mm 0.00 W/m2 FEW
02:04 70 °F /  21.1 °C 67.3 °F /  19.6 °C 29.8in /  1008.7hPa North 6.7mph /  10.8km/h 6.9mph /  11.1km/h 91% 0in /  0.0mm 0.00 W/m2 FEW
02:09 70 °F /  21.1 °C 67.3 °F /  19.6 °C 29.8in /  1008.8hPa North 4mph /  6.4km/h 5.8mph /  9.3km/h 91% 0in /  0.0mm 0.00 W/m2 FEW
02:14 70 °F /  21.1 °C 67.3 °F /  19.6 °C 29.8in /  1008.9hPa North 6.3mph /  10.1km/h 9mph /  14.5km/h 91% 0in /  0.0mm 0.00 W/m2 FEW
02:19 70 °F /  21.1 °C 67.3 °F /  19.6 °C 29.8in /  1009.1hPa North 2.4mph /  3.9km/h 4.6mph /  7.4km/h 91% 0in /  0.0mm 0.00 W/m2 FEW
02:24 69.8 °F /  21.0 °C 67.1 °F /  19.5 °C 29.8in /  1009.0hPa NNW 1mph /  1.6km/h 2.3mph /  3.7km/h 91% 0in /  0.0mm 0.00 W/m2 FEW
02:29 69.6 °F /  20.9 °C 66.9 °F /  19.4 °C 29.8in /  1009.0hPa NNW 1.8mph /  2.9km/h 3.5mph /  5.6km/h 91% 0in /  0.0mm 0.00 W/m2 FEW
02:34 69.6 °F /  20.9 °C 66.9 °F /  19.4 °C 29.8in /  1009.0hPa WNW 1.6mph /  2.6km/h 2.3mph /  3.7km/h 91% 0in /  0.0mm 0.00 W/m2 FEW
02:39 69.4 °F /  20.8 °C 66.7 °F /  19.3 °C 29.8in /  1009.1hPa NW 3mph /  4.8km/h 4mph /  6.4km/h 91% 0in /  0.0mm 0.00 W/m2 FEW
02:44 69.4 °F /  20.8 °C 66.7 °F /  19.3 °C 29.8in /  1009.0hPa NNW 3.7mph /  6.0km/h 4.6mph /  7.4km/h 91% 0in /  0.0mm 0.00 W/m2 FEW
02:49 69.3 °F /  20.7 °C 66.6 °F /  19.2 °C 29.8in /  1009.1hPa NNW 2.9mph /  4.7km/h 3.5mph /  5.6km/h 91% 0in /  0.0mm 0.00 W/m2 FEW
02:54 69.1 °F /  20.6 °C 66.4 °F /  19.1 °C 29.8in /  1009.1hPa NNW 3.1mph /  5.0km/h 3.5mph /  5.6km/h 91% 0in /  0.0mm 0.00 W/m2 FEW
02:59 69.1 °F /  20.6 °C 66.4 °F /  19.1 °C 29.8in /  1009.1hPa NNW 3.2mph /  5.1km/h 3.5mph /  5.6km/h 91% 0in /  0.0mm 0.00 W/m2 FEW
03:04 68.7 °F /  20.4 °C 66 °F /  18.9 °C 29.8in /  1009.1hPa NNW 2mph /  3.2km/h 3.5mph /  5.6km/h 91% 0in /  0.0mm 0.00 W/m2 FEW
03:09 68.5 °F /  20.3 °C 65.8 °F /  18.8 °C 29.8in /  1009.1hPa NNW 2mph /  3.2km/h 3mph /  4.8km/h 91% 0in /  0.0mm 0.00 W/m2 FEW
03:14 68.5 °F /  20.3 °C 66 °F /  18.9 °C 29.8in /  1009.1hPa North 3mph /  4.8km/h 3.5mph /  5.6km/h 92% 0in /  0.0mm 0.00 W/m2 FEW
03:19 68.4 °F /  20.2 °C 65.7 °F /  18.7 °C 29.8in /  1009.0hPa North 4mph /  6.4km/h 4.6mph /  7.4km/h 91% 0in /  0.0mm 0.00 W/m2 FEW
03:24 68.2 °F /  20.1 °C 65.7 °F /  18.7 °C 29.8in /  1009.0hPa North 3.5mph /  5.6km/h 4.6mph /  7.4km/h 92% 0in /  0.0mm 0.00 W/m2 FEW
03:29 67.8 °F /  19.9 °C 65.5 °F /  18.6 °C 29.8in /  1009.0hPa North 3.4mph /  5.5km/h 4mph /  6.4km/h 92% 0in /  0.0mm 0.00 W/m2 FEW
03:34 67.6 °F /  19.8 °C 65.3 °F /  18.5 °C 29.8in /  1009.0hPa NNE 3.6mph /  5.8km/h 3.5mph /  5.6km/h 92% 0in /  0.0mm 0.00 W/m2 FEW
03:39 67.5 °F /  19.7 °C 64.8 °F /  18.2 °C 29.8in /  1009.0hPa NNE 2.5mph /  4.0km/h 3.5mph /  5.6km/h 91% 0in /  0.0mm 0.00 W/m2 FEW
03:44 67.3 °F /  19.6 °C 64.6 °F /  18.1 °C 29.8in /  1009.0hPa North 3.1mph /  5.0km/h 3.5mph /  5.6km/h 91% 0in /  0.0mm 0.00 W/m2 FEW
03:49 67.1 °F /  19.5 °C 64.4 °F /  18.0 °C 29.8in /  1009.2hPa North 0.9mph /  1.4km/h 2.3mph /  3.7km/h 91% 0in /  0.0mm 0.00 W/m2 FEW
03:54 66.9 °F /  19.4 °C 64.2 °F /  17.9 °C 29.8in /  1009.2hPa NNW 1mph /  1.6km/h 1.1mph /  1.8km/h 91% 0in /  0.0mm 0.00 W/m2 FEW
03:59 66.9 °F /  19.4 °C 64.2 °F /  17.9 °C 29.8in /  1009.2hPa NNW 1mph /  1.6km/h 1.1mph /  1.8km/h 91% 0in /  0.0mm 0.00 W/m2 FEW
04:04 66.7 °F /  19.3 °C 64 °F /  17.8 °C 29.8in /  1009.2hPa North 2.3mph /  3.7km/h 3.5mph /  5.6km/h 91% 0in /  0.0mm 0.00 W/m2 FEW
04:09 66.7 °F /  19.3 °C 64 °F /  17.8 °C 29.8in /  1009.1hPa North 3.1mph /  5.0km/h 4mph /  6.4km/h 91% 0in /  0.0mm 0.00 W/m2 FEW
04:14 66.9 °F /  19.4 °C 63.9 °F /  17.7 °C 29.8in /  1009.2hPa North 3.7mph /  6.0km/h 4mph /  6.4km/h 90% 0in /  0.0mm 0.00 W/m2 FEW
04:19 66.7 °F /  19.3 °C 63.9 °F /  17.7 °C 29.8in /  1009.1hPa North 3.3mph /  5.3km/h 4.6mph /  7.4km/h 90% 0in /  0.0mm 0.00 W/m2 FEW
04:24 66.7 °F /  19.3 °C 63.7 °F /  17.6 °C 29.8in /  1009.1hPa North 2.9mph /  4.7km/h 3.5mph /  5.6km/h 90% 0in /  0.0mm 0.00 W/m2 FEW
04:29 66.6 °F /  19.2 °C 63.3 °F /  17.4 °C 29.8in /  1009.1hPa North 3.2mph /  5.1km/h 3.5mph /  5.6km/h 89% 0in /  0.0mm 0.00 W/m2 FEW
04:34 66.6 °F /  19.2 °C 63.3 °F /  17.4 °C 29.8in /  1009.1hPa North 3.3mph /  5.3km/h 3.5mph /  5.6km/h 89% 0in /  0.0mm 0.00 W/m2 FEW
04:39 66.6 °F /  19.2 °C 62.8 °F /  17.1 °C 29.8in /  1009.0hPa North 3.8mph /  6.1km/h 4.6mph /  7.4km/h 88% 0in /  0.0mm 0.00 W/m2 FEW
04:44 66.6 °F /  19.2 °C 62.8 °F /  17.1 °C 29.8in /  1009.1hPa North 4.6mph /  7.4km/h 6.9mph /  11.1km/h 88% 0in /  0.0mm 0.00 W/m2 FEW
04:49 66.4 °F /  19.1 °C 62.8 °F /  17.1 °C 29.8in /  1009.1hPa North 3.5mph /  5.6km/h 4.6mph /  7.4km/h 88% 0in /  0.0mm 0.00 W/m2 FEW
04:54 66.4 °F /  19.1 °C 62.2 °F /  16.8 °C 29.8in /  1009.1hPa North 2.9mph /  4.7km/h 4.6mph /  7.4km/h 87% 0in /  0.0mm 0.00 W/m2 FEW
04:59 66.4 °F /  19.1 °C 62.2 °F /  16.8 °C 29.8in /  1009.1hPa NNE 3.2mph /  5.1km/h 3.5mph /  5.6km/h 87% 0in /  0.0mm 0.00 W/m2 FEW
05:04 66.2 °F /  19.0 °C 62.2 °F /  16.8 °C 29.8in /  1009.0hPa NNE 3.2mph /  5.1km/h 3.5mph /  5.6km/h 87% 0in /  0.0mm 0.00 W/m2 FEW
05:09 66 °F /  18.9 °C 62.1 °F /  16.7 °C 29.8in /  1009.0hPa North 3mph /  4.8km/h 4mph /  6.4km/h 87% 0in /  0.0mm 0.00 W/m2 FEW
05:14 66 °F /  18.9 °C 62.2 °F /  16.8 °C 29.8in /  1009.1hPa NNW 1.9mph /  3.1km/h 3.5mph /  5.6km/h 88% 0in /  0.0mm 0.00 W/m2 FEW
05:19 66 °F /  18.9 °C 62.2 °F /  16.8 °C 29.8in /  1009.1hPa NW 2.1mph /  3.4km/h 2.3mph /  3.7km/h 88% 0in /  0.0mm 0.00 W/m2 FEW
05:24 65.8 °F /  18.8 °C 62.1 °F /  16.7 °C 29.8in /  1009.1hPa NW 2mph /  3.2km/h 3.5mph /  5.6km/h 88% 0in /  0.0mm 0.00 W/m2 FEW
05:29 65.7 °F /  18.7 °C 61.9 °F /  16.6 °C 29.8in /  1009.1hPa NW 3mph /  4.8km/h 3.5mph /  5.6km/h 88% 0in /  0.0mm 0.00 W/m2 FEW
05:34 65.5 °F /  18.6 °C 62.2 °F /  16.8 °C 29.8in /  1009.1hPa WNW 3.2mph /  5.1km/h 4mph /  6.4km/h 89% 0in /  0.0mm 0.00 W/m2 FEW
05:39 65.3 °F /  18.5 °C 62.1 °F /  16.7 °C 29.8in /  1009.1hPa WNW 2.9mph /  4.7km/h 3.5mph /  5.6km/h 89% 0in /  0.0mm 0.00 W/m2 FEW
05:44 65.3 °F /  18.5 °C 62.1 °F /  16.7 °C 29.8in /  1009.1hPa NNW 3mph /  4.8km/h 3.5mph /  5.6km/h 89% 0in /  0.0mm 0.00 W/m2 FEW
05:49 65.3 °F /  18.5 °C 62.1 °F /  16.7 °C 29.8in /  1009.1hPa NW 2.8mph /  4.5km/h 3.5mph /  5.6km/h 89% 0in /  0.0mm 0.00 W/m2 FEW
05:54 65.3 °F /  18.5 °C 62.1 °F /  16.7 °C 29.8in /  1009.1hPa NW 2mph /  3.2km/h 2.3mph /  3.7km/h 89% 0in /  0.0mm 0.00 W/m2 FEW
05:59 65.3 °F /  18.5 °C 62.1 °F /  16.7 °C 29.8in /  1009.1hPa WNW 1mph /  1.6km/h 2.3mph /  3.7km/h 89% 0in /  0.0mm 0.00 W/m2 FEW
06:04 65.1 °F /  18.4 °C 61.9 °F /  16.6 °C 29.8in /  1009.1hPa WNW 0.9mph /  1.4km/h 1.1mph /  1.8km/h 89% 0in /  0.0mm 0.00 W/m2 FEW
06:09 65.1 °F /  18.4 °C 61.9 °F /  16.6 °C 29.8in /  1009.3hPa West 1.9mph /  3.1km/h 3.5mph /  5.6km/h 89% 0in /  0.0mm 0.00 W/m2 FEW
06:14 64.9 °F /  18.3 °C 61.7 °F /  16.5 °C 29.8in /  1009.3hPa West 1.6mph /  2.6km/h 3.5mph /  5.6km/h 89% 0in /  0.0mm 5.00 W/m2 FEW
06:19 64.9 °F /  18.3 °C 61.7 °F /  16.5 °C 29.8in /  1009.2hPa WNW 1.3mph /  2.1km/h 2.3mph /  3.7km/h 89% 0in /  0.0mm 7.00 W/m2 FEW
06:24 64.9 °F /  18.3 °C 61.7 °F /  16.5 °C 29.8in /  1009.2hPa NW 1mph /  1.6km/h 1.1mph /  1.8km/h 89% 0in /  0.0mm 11.00 W/m2 FEW
06:29 64.9 °F /  18.3 °C 61.7 °F /  16.5 °C 29.8in /  1009.2hPa Calm     89% 0in /  0.0mm 14.00 W/m2 FEW
06:34 64.9 °F /  18.3 °C 61.7 °F /  16.5 °C 29.8in /  1009.3hPa WSW 1mph /  1.6km/h 2mph /  3.2km/h 89% 0in /  0.0mm 16.00 W/m2 FEW
06:39 64.9 °F /  18.3 °C 61.7 °F /  16.5 °C 29.8in /  1009.6hPa SW 5.3mph /  8.5km/h 6mph /  9.7km/h 89% 0in /  0.0mm 21.00 W/m2 FEW
06:44 64.8 °F /  18.2 °C 61.9 °F /  16.6 °C 29.8in /  1009.9hPa SW 5.7mph /  9.2km/h 6.9mph /  11.1km/h 90% 0in /  0.0mm 28.00 W/m2 FEW
06:49 64.9 °F /  18.3 °C 61.9 °F /  16.6 °C 29.8in /  1009.9hPa SW 5.2mph /  8.4km/h 6mph /  9.7km/h 90% 0in /  0.0mm 35.00 W/m2 FEW
06:54 64.9 °F /  18.3 °C 62.2 °F /  16.8 °C 29.8in /  1010.1hPa SW 5.4mph /  8.7km/h 6mph /  9.7km/h 91% 0in /  0.0mm 44.00 W/m2 FEW
06:59 65.1 °F /  18.4 °C 62.1 °F /  16.7 °C 29.8in /  1010.0hPa WSW 2mph /  3.2km/h 3.5mph /  5.6km/h 90% 0in /  0.0mm 53.00 W/m2 FEW
07:04 65.1 °F /  18.4 °C 62.2 °F /  16.8 °C 29.8in /  1010.0hPa WNW 0.6mph /  1.0km/h 2.3mph /  3.7km/h 90% 0in /  0.0mm 65.00 W/m2 FEW
07:09 65.5 °F /  18.6 °C 62.4 °F /  16.9 °C 29.8in /  1010.1hPa WNW 1.2mph /  1.9km/h 2.3mph /  3.7km/h 90% 0in /  0.0mm 76.00 W/m2 FEW
07:14 65.7 °F /  18.7 °C 62.8 °F /  17.1 °C 29.8in /  1010.1hPa West 0.9mph /  1.4km/h 1.1mph /  1.8km/h 90% 0in /  0.0mm 88.00 W/m2 FEW
07:19 65.8 °F /  18.8 °C 63 °F /  17.2 °C 29.8in /  1010.1hPa Calm     90% 0in /  0.0mm 102.00 W/m2 FEW
07:24 66.2 °F /  19.0 °C 63.1 °F /  17.3 °C 29.8in /  1010.2hPa WSW 0.6mph /  1.0km/h 1.1mph /  1.8km/h 90% 0in /  0.0mm 118.00 W/m2 FEW
07:29 66.6 °F /  19.2 °C 63.3 °F /  17.4 °C 29.8in /  1010.2hPa WSW 1.9mph /  3.1km/h 2.3mph /  3.7km/h 89% 0in /  0.0mm 134.00 W/m2 FEW
07:34 66.9 °F /  19.4 °C 64 °F /  17.8 °C 29.8in /  1010.2hPa West 1mph /  1.6km/h 1.1mph /  1.8km/h 90% 0in /  0.0mm 149.00 W/m2 FEW
07:39 67.5 °F /  19.7 °C 64 °F /  17.8 °C 29.8in /  1010.1hPa NW 1.6mph /  2.6km/h 2.3mph /  3.7km/h 89% 0in /  0.0mm 165.00 W/m2 FEW
07:44 67.6 °F /  19.8 °C 64.2 °F /  17.9 °C 29.8in /  1010.1hPa West 0.9mph /  1.4km/h 1.1mph /  1.8km/h 89% 0in /  0.0mm 178.00 W/m2 FEW
07:49 68.2 °F /  20.1 °C 64.8 °F /  18.2 °C 29.8in /  1010.2hPa West 2mph /  3.2km/h 2.3mph /  3.7km/h 89% 0in /  0.0mm 193.00 W/m2 FEW
07:54 68.5 °F /  20.3 °C 64.8 °F /  18.2 °C 29.8in /  1010.3hPa NW 0.9mph /  1.4km/h 3.5mph /  5.6km/h 88% 0in /  0.0mm 207.00 W/m2 FEW
07:59 69.1 °F /  20.6 °C 65.3 °F /  18.5 °C 29.8in /  1010.3hPa NW 1mph /  1.6km/h 2.3mph /  3.7km/h 88% 0in /  0.0mm 223.00 W/m2 FEW
08:04 69.4 °F /  20.8 °C 65.5 °F /  18.6 °C 29.8in /  1010.4hPa WNW 1.9mph /  3.1km/h 2.3mph /  3.7km/h 87% 0in /  0.0mm 237.00 W/m2 FEW
08:09 70 °F /  21.1 °C 64.8 °F /  18.2 °C 29.8in /  1010.5hPa NW 2mph /  3.2km/h 3.5mph /  5.6km/h 84% 0in /  0.0mm 253.00 W/m2 FEW
08:14 70.3 °F /  21.3 °C 64.9 °F /  18.3 °C 29.8in /  1010.5hPa North 2.5mph /  4.0km/h 3.5mph /  5.6km/h 83% 0in /  0.0mm 265.00 W/m2 FEW
08:19 70.9 °F /  21.6 °C 65.5 °F /  18.6 °C 29.8in /  1010.5hPa NNW 2.9mph /  4.7km/h 3.5mph /  5.6km/h 83% 0in /  0.0mm 281.00 W/m2 FEW
08:24 71.2 °F /  21.8 °C 65.1 °F /  18.4 °C 29.8in /  1010.6hPa NNW 4mph /  6.4km/h 6mph /  9.7km/h 81% 0in /  0.0mm 297.00 W/m2 FEW
08:29 71.8 °F /  22.1 °C 65.3 °F /  18.5 °C 29.8in /  1010.7hPa North 4.5mph /  7.2km/h 5.8mph /  9.3km/h 80% 0in /  0.0mm 313.00 W/m2 FEW
08:34 72.1 °F /  22.3 °C 65.7 °F /  18.7 °C 29.8in /  1010.7hPa NNW 3.7mph /  6.0km/h 7mph /  11.3km/h 80% 0in /  0.0mm 325.00 W/m2 FEW
08:39 72.5 °F /  22.5 °C 65.7 °F /  18.7 °C 29.8in /  1010.6hPa North 5.4mph /  8.7km/h 6mph /  9.7km/h 79% 0in /  0.0mm 341.00 W/m2 FEW
08:44 72.9 °F /  22.7 °C 65.7 °F /  18.7 °C 29.8in /  1010.5hPa North 4.7mph /  7.6km/h 6mph /  9.7km/h 78% 0in /  0.0mm 359.00 W/m2 FEW
08:49 73.2 °F /  22.9 °C 65.1 °F /  18.4 °C 29.8in /  1010.6hPa North 6.5mph /  10.5km/h 9.2mph /  14.8km/h 76% 0in /  0.0mm 376.00 W/m2 FEW
08:54 73.8 °F /  23.2 °C 66.4 °F /  19.1 °C 29.8in /  1010.6hPa North 6mph /  9.7km/h 8.1mph /  13.0km/h 78% 0in /  0.0mm 385.00 W/m2 FEW
08:59 73.8 °F /  23.2 °C 63.9 °F /  17.7 °C 29.8in /  1010.6hPa NNE 5.2mph /  8.4km/h 6.9mph /  11.1km/h 71% 0in /  0.0mm 404.00 W/m2 FEW
09:04 73.9 °F /  23.3 °C 64 °F /  17.8 °C 29.8in /  1010.6hPa NNE 5.3mph /  8.5km/h 5.8mph /  9.3km/h 71% 0in /  0.0mm 420.00 W/m2 FEW
09:09 74.1 °F /  23.4 °C 64 °F /  17.8 °C 29.8in /  1010.6hPa North 5.6mph /  9.0km/h 7mph /  11.3km/h 71% 0in /  0.0mm 436.00 W/m2 FEW
09:14 74.3 °F /  23.5 °C 64.8 °F /  18.2 °C 29.8in /  1010.6hPa NNE 5.4mph /  8.7km/h 9.2mph /  14.8km/h 72% 0in /  0.0mm 455.00 W/m2 FEW
09:19 74.7 °F /  23.7 °C 65.5 °F /  18.6 °C 29.8in /  1010.5hPa NE 6.7mph /  10.8km/h 8.1mph /  13.0km/h 73% 0in /  0.0mm 468.00 W/m2 FEW
09:24 75 °F /  23.9 °C 64.9 °F /  18.3 °C 29.8in /  1010.4hPa NE 7.4mph /  11.9km/h 9.2mph /  14.8km/h 71% 0in /  0.0mm 482.00 W/m2 FEW
09:29 75.2 °F /  24.0 °C 63.5 °F /  17.5 °C 29.8in /  1010.5hPa NNE 6.5mph /  10.5km/h 9mph /  14.5km/h 67% 0in /  0.0mm 492.00 W/m2 FEW
09:34 75.4 °F /  24.1 °C 64 °F /  17.8 °C 29.8in /  1010.4hPa NNE 8mph /  12.9km/h 11mph /  17.7km/h 68% 0in /  0.0mm 506.00 W/m2 FEW
09:39 75.6 °F /  24.2 °C 64.8 °F /  18.2 °C 29.8in /  1010.4hPa NNE 5mph /  8.0km/h 8.1mph /  13.0km/h 69% 0in /  0.0mm 524.00 W/m2 FEW
09:44 75.9 °F /  24.4 °C 64.9 °F /  18.3 °C 29.8in /  1010.5hPa North 6.4mph /  10.3km/h 9.2mph /  14.8km/h 69% 0in /  0.0mm 541.00 W/m2 FEW
Friend Weather